Terminal Aerodrome Forecast
Issued by NWS

Home | Current Version | Previous Version | Text Only | Print | Product List | Glossary On
Versions: 1 2 3 4 5 6 7 8 9 10 11 12 13 14 15 16 17
000
FTUS45 KRIW 280500
TAFBPI
TAF
KBPI 280532Z 2806/2906 VRB05KT P6SM VCSH SCT025 BKN040
      TEMPO 2808/2812 3SM -SN BKN020
     FM281200 31007KT 5SM -SN BKN020
     FM281700 33007KT P6SM VCSH SCT020 BKN035
     FM290000 35007KT P6SM SCT025 BKN050=

USA.gov is the U.S. government's official web portal to all federal, state and local government web resources and services.